sensor_id;sensor_type;location;lat;lon;timestamp;P1;durP1;ratioP1;P2;durP2;ratioP2
2868;SDS011;1442;47.448;8.582;2022-08-18T00:02:25;8.38;;;6.30;;
2868;SDS011;1442;47.448;8.582;2022-08-18T00:04:53;10.07;;;6.45;;
2868;SDS011;1442;47.448;8.582;2022-08-18T00:07:21;5.90;;;5.25;;
2868;SDS011;1442;47.448;8.582;2022-08-18T00:09:49;6.95;;;6.25;;
2868;SDS011;1442;47.448;8.582;2022-08-18T00:12:19;7.22;;;5.45;;
2868;SDS011;1442;47.448;8.582;2022-08-18T00:14:47;8.73;;;6.50;;
2868;SDS011;1442;47.448;8.582;2022-08-18T00:17:14;6.88;;;5.70;;
2868;SDS011;1442;47.448;8.582;2022-08-18T00:19:42;9.02;;;6.00;;
2868;SDS011;1442;47.448;8.582;2022-08-18T00:22:09;14.77;;;6.03;;
2868;SDS011;1442;47.448;8.582;2022-08-18T00:24:37;9.38;;;6.22;;
2868;SDS011;1442;47.448;8.582;2022-08-18T00:27:04;7.95;;;7.15;;
2868;SDS011;1442;47.448;8.582;2022-08-18T00:29:35;7.15;;;6.07;;
2868;SDS011;1442;47.448;8.582;2022-08-18T00:32:10;8.02;;;6.30;;
2868;SDS011;1442;47.448;8.582;2022-08-18T00:34:37;6.63;;;5.93;;
2868;SDS011;1442;47.448;8.582;2022-08-18T00:37:05;8.10;;;6.30;;
2868;SDS011;1442;47.448;8.582;2022-08-18T00:39:32;7.85;;;5.90;;
2868;SDS011;1442;47.448;8.582;2022-08-18T00:41:59;8.25;;;5.82;;
2868;SDS011;1442;47.448;8.582;2022-08-18T00:44:26;7.85;;;5.70;;
2868;SDS011;1442;47.448;8.582;2022-08-18T00:46:54;7.47;;;6.15;;
2868;SDS011;1442;47.448;8.582;2022-08-18T00:49:22;9.88;;;7.03;;
2868;SDS011;1442;47.448;8.582;2022-08-18T00:51:49;10.48;;;6.80;;
2868;SDS011;1442;47.448;8.582;2022-08-18T00:54:18;7.45;;;6.22;;
2868;SDS011;1442;47.448;8.582;2022-08-18T00:56:47;6.88;;;6.15;;
2868;SDS011;1442;47.448;8.582;2022-08-18T00:59:15;8.27;;;6.85;;
2868;SDS011;1442;47.448;8.582;2022-08-18T01:01:43;7.20;;;6.18;;
2868;SDS011;1442;47.448;8.582;2022-08-18T01:04:15;7.40;;;6.63;;
2868;SDS011;1442;47.448;8.582;2022-08-18T01:06:44;9.57;;;7.43;;
2868;SDS011;1442;47.448;8.582;2022-08-18T01:09:12;8.98;;;7.15;;
2868;SDS011;1442;47.448;8.582;2022-08-18T01:11:41;8.05;;;7.22;;
2868;SDS011;1442;47.448;8.582;2022-08-18T01:14:09;9.77;;;7.45;;
2868;SDS011;1442;47.448;8.582;2022-08-18T01:16:39;8.23;;;7.07;;
2868;SDS011;1442;47.448;8.582;2022-08-18T01:19:26;8.88;;;7.13;;
2868;SDS011;1442;47.448;8.582;2022-08-18T01:22:09;9.32;;;6.68;;
2868;SDS011;1442;47.448;8.582;2022-08-18T01:24:40;9.45;;;7.88;;
2868;SDS011;1442;47.448;8.582;2022-08-18T01:27:24;7.95;;;7.07;;
2868;SDS011;1442;47.448;8.582;2022-08-18T01:29:56;6.97;;;6.13;;
2868;SDS011;1442;47.448;8.582;2022-08-18T01:32:23;6.88;;;6.18;;
2868;SDS011;1442;47.448;8.582;2022-08-18T01:34:52;7.00;;;6.28;;
2868;SDS011;1442;47.448;8.582;2022-08-18T01:37:21;9.88;;;6.60;;
2868;SDS011;1442;47.448;8.582;2022-08-18T01:39:50;9.07;;;6.22;;
2868;SDS011;1442;47.448;8.582;2022-08-18T01:42:17;7.22;;;6.28;;
2868;SDS011;1442;47.448;8.582;2022-08-18T01:44:44;7.97;;;5.85;;
2868;SDS011;1442;47.448;8.582;2022-08-18T01:47:12;8.88;;;7.20;;
2868;SDS011;1442;47.448;8.582;2022-08-18T01:49:39;6.80;;;5.80;;
2868;SDS011;1442;47.448;8.582;2022-08-18T01:52:07;6.43;;;5.53;;
2868;SDS011;1442;47.448;8.582;2022-08-18T01:54:34;6.63;;;6.03;;
2868;SDS011;1442;47.448;8.582;2022-08-18T01:57:03;5.75;;;5.15;;
2868;SDS011;1442;47.448;8.582;2022-08-18T01:59:30;6.85;;;5.22;;
2868;SDS011;1442;47.448;8.582;2022-08-18T02:01:59;6.13;;;5.43;;
2868;SDS011;1442;47.448;8.582;2022-08-18T02:04:27;5.80;;;5.20;;
2868;SDS011;1442;47.448;8.582;2022-08-18T02:06:57;9.32;;;5.28;;
2868;SDS011;1442;47.448;8.582;2022-08-18T02:09:25;6.13;;;5.53;;
2868;SDS011;1442;47.448;8.582;2022-08-18T02:11:52;7.22;;;5.47;;
2868;SDS011;1442;47.448;8.582;2022-08-18T02:14:21;7.47;;;5.13;;
2868;SDS011;1442;47.448;8.582;2022-08-18T02:16:48;12.00;;;5.10;;
2868;SDS011;1442;47.448;8.582;2022-08-18T02:19:15;7.88;;;5.18;;
2868;SDS011;1442;47.448;8.582;2022-08-18T02:21:43;5.93;;;4.72;;
2868;SDS011;1442;47.448;8.582;2022-08-18T02:24:10;9.73;;;4.90;;
2868;SDS011;1442;47.448;8.582;2022-08-18T02:26:37;6.55;;;5.30;;
2868;SDS011;1442;47.448;8.582;2022-08-18T02:29:04;6.35;;;5.20;;
2868;SDS011;1442;47.448;8.582;2022-08-18T02:31:33;7.20;;;4.95;;
2868;SDS011;1442;47.448;8.582;2022-08-18T02:34:00;6.00;;;5.30;;
2868;SDS011;1442;47.448;8.582;2022-08-18T02:36:27;4.97;;;4.47;;
2868;SDS011;1442;47.448;8.582;2022-08-18T02:38:55;6.35;;;5.43;;
2868;SDS011;1442;47.448;8.582;2022-08-18T02:41:22;11.13;;;5.88;;
2868;SDS011;1442;47.448;8.582;2022-08-18T02:43:51;6.65;;;5.88;;
2868;SDS011;1442;47.448;8.582;2022-08-18T02:46:18;7.38;;;5.80;;
2868;SDS011;1442;47.448;8.582;2022-08-18T02:48:47;7.57;;;5.85;;
2868;SDS011;1442;47.448;8.582;2022-08-18T02:51:15;7.30;;;6.30;;
2868;SDS011;1442;47.448;8.582;2022-08-18T02:53:44;9.10;;;5.78;;
2868;SDS011;1442;47.448;8.582;2022-08-18T02:56:12;8.73;;;6.15;;
2868;SDS011;1442;47.448;8.582;2022-08-18T02:58:47;6.35;;;5.75;;
2868;SDS011;1442;47.448;8.582;2022-08-18T03:01:16;9.77;;;5.47;;
2868;SDS011;1442;47.448;8.582;2022-08-18T03:03:44;7.65;;;5.60;;
2868;SDS011;1442;47.448;8.582;2022-08-18T03:06:13;6.78;;;5.80;;
2868;SDS011;1442;47.448;8.582;2022-08-18T03:08:40;11.98;;;6.20;;
2868;SDS011;1442;47.448;8.582;2022-08-18T03:11:07;7.72;;;6.25;;
2868;SDS011;1442;47.448;8.582;2022-08-18T03:13:35;9.73;;;5.68;;
2868;SDS011;1442;47.448;8.582;2022-08-18T03:16:03;8.43;;;6.97;;
2868;SDS011;1442;47.448;8.582;2022-08-18T03:18:31;8.40;;;6.35;;
2868;SDS011;1442;47.448;8.582;2022-08-18T03:21:03;6.95;;;6.35;;
2868;SDS011;1442;47.448;8.582;2022-08-18T03:23:31;7.63;;;6.70;;
2868;SDS011;1442;47.448;8.582;2022-08-18T03:25:58;8.38;;;6.93;;
2868;SDS011;1442;47.448;8.582;2022-08-18T03:28:26;7.10;;;6.40;;
2868;SDS011;1442;47.448;8.582;2022-08-18T03:30:53;8.88;;;6.70;;
2868;SDS011;1442;47.448;8.582;2022-08-18T03:33:20;12.25;;;7.38;;
2868;SDS011;1442;47.448;8.582;2022-08-18T03:35:48;7.80;;;7.00;;
2868;SDS011;1442;47.448;8.582;2022-08-18T03:38:15;9.32;;;8.00;;
2868;SDS011;1442;47.448;8.582;2022-08-18T03:40:47;14.88;;;8.75;;
2868;SDS011;1442;47.448;8.582;2022-08-18T03:43:16;14.32;;;9.55;;
2868;SDS011;1442;47.448;8.582;2022-08-18T03:45:43;11.75;;;9.82;;
2868;SDS011;1442;47.448;8.582;2022-08-18T03:48:10;14.45;;;10.43;;
2868;SDS011;1442;47.448;8.582;2022-08-18T03:50:38;11.20;;;10.02;;
2868;SDS011;1442;47.448;8.582;2022-08-18T03:53:05;13.82;;;10.15;;
2868;SDS011;1442;47.448;8.582;2022-08-18T03:55:32;14.43;;;9.60;;
2868;SDS011;1442;47.448;8.582;2022-08-18T03:58:01;11.48;;;9.00;;
2868;SDS011;1442;47.448;8.582;2022-08-18T04:00:29;12.00;;;9.38;;
2868;SDS011;1442;47.448;8.582;2022-08-18T04:02:56;9.43;;;8.43;;
2868;SDS011;1442;47.448;8.582;2022-08-18T04:05:24;12.65;;;9.15;;
2868;SDS011;1442;47.448;8.582;2022-08-18T04:07:52;11.10;;;7.53;;
2868;SDS011;1442;47.448;8.582;2022-08-18T04:10:21;10.45;;;8.68;;
2868;SDS011;1442;47.448;8.582;2022-08-18T04:12:48;11.48;;;10.00;;
2868;SDS011;1442;47.448;8.582;2022-08-18T04:15:17;9.90;;;8.55;;
2868;SDS011;1442;47.448;8.582;2022-08-18T04:17:44;10.60;;;8.93;;
2868;SDS011;1442;47.448;8.582;2022-08-18T04:20:11;10.85;;;8.55;;
2868;SDS011;1442;47.448;8.582;2022-08-18T04:22:40;9.35;;;7.82;;
2868;SDS011;1442;47.448;8.582;2022-08-18T04:25:09;8.95;;;6.68;;
2868;SDS011;1442;47.448;8.582;2022-08-18T04:27:36;9.40;;;6.82;;
2868;SDS011;1442;47.448;8.582;2022-08-18T04:30:07;12.57;;;7.25;;
2868;SDS011;1442;47.448;8.582;2022-08-18T04:32:36;9.00;;;7.47;;
2868;SDS011;1442;47.448;8.582;2022-08-18T04:35:04;16.02;;;7.82;;
2868;SDS011;1442;47.448;8.582;2022-08-18T04:37:31;9.55;;;7.05;;
2868;SDS011;1442;47.448;8.582;2022-08-18T04:39:59;9.00;;;6.68;;
2868;SDS011;1442;47.448;8.582;2022-08-18T04:42:26;8.82;;;7.28;;
2868;SDS011;1442;47.448;8.582;2022-08-18T04:44:53;9.75;;;7.18;;
2868;SDS011;1442;47.448;8.582;2022-08-18T04:47:22;10.40;;;7.18;;
2868;SDS011;1442;47.448;8.582;2022-08-18T04:49:51;7.32;;;6.55;;
2868;SDS011;1442;47.448;8.582;2022-08-18T04:52:19;7.75;;;6.95;;
2868;SDS011;1442;47.448;8.582;2022-08-18T04:55:04;8.02;;;7.07;;
2868;SDS011;1442;47.448;8.582;2022-08-18T04:57:31;8.40;;;7.60;;
2868;SDS011;1442;47.448;8.582;2022-08-18T04:59:58;8.43;;;6.95;;
2868;SDS011;1442;47.448;8.582;2022-08-18T05:02:26;8.18;;;7.32;;
2868;SDS011;1442;47.448;8.582;2022-08-18T05:04:54;9.05;;;7.85;;
2868;SDS011;1442;47.448;8.582;2022-08-18T05:07:21;8.35;;;7.50;;
2868;SDS011;1442;47.448;8.582;2022-08-18T05:09:48;9.77;;;7.85;;
2868;SDS011;1442;47.448;8.582;2022-08-18T05:12:16;12.30;;;9.88;;
2868;SDS011;1442;47.448;8.582;2022-08-18T05:14:43;16.67;;;13.15;;
2868;SDS011;1442;47.448;8.582;2022-08-18T05:17:11;17.95;;;14.25;;
2868;SDS011;1442;47.448;8.582;2022-08-18T05:19:38;18.52;;;15.13;;
2868;SDS011;1442;47.448;8.582;2022-08-18T05:22:09;15.43;;;13.25;;
2868;SDS011;1442;47.448;8.582;2022-08-18T05:24:38;18.67;;;15.10;;
2868;SDS011;1442;47.448;8.582;2022-08-18T05:27:05;15.95;;;14.18;;
2868;SDS011;1442;47.448;8.582;2022-08-18T05:29:32;18.50;;;15.27;;
2868;SDS011;1442;47.448;8.582;2022-08-18T05:32:01;23.70;;;20.38;;
2868;SDS011;1442;47.448;8.582;2022-08-18T05:34:30;25.98;;;20.95;;
2868;SDS011;1442;47.448;8.582;2022-08-18T05:37:00;26.88;;;21.10;;
2868;SDS011;1442;47.448;8.582;2022-08-18T05:39:31;26.88;;;22.20;;
2868;SDS011;1442;47.448;8.582;2022-08-18T05:42:03;33.70;;;26.15;;
2868;SDS011;1442;47.448;8.582;2022-08-18T05:44:33;30.80;;;24.45;;
2868;SDS011;1442;47.448;8.582;2022-08-18T05:47:02;29.10;;;22.55;;
2868;SDS011;1442;47.448;8.582;2022-08-18T05:49:30;27.33;;;22.92;;
2868;SDS011;1442;47.448;8.582;2022-08-18T05:51:59;28.90;;;24.25;;
2868;SDS011;1442;47.448;8.582;2022-08-18T05:54:28;26.70;;;21.42;;
2868;SDS011;1442;47.448;8.582;2022-08-18T05:57:18;23.38;;;19.13;;
2868;SDS011;1442;47.448;8.582;2022-08-18T05:59:47;25.33;;;20.02;;
2868;SDS011;1442;47.448;8.582;2022-08-18T06:02:15;23.85;;;19.75;;
2868;SDS011;1442;47.448;8.582;2022-08-18T06:04:45;21.13;;;18.58;;
2868;SDS011;1442;47.448;8.582;2022-08-18T06:07:15;22.17;;;17.40;;
2868;SDS011;1442;47.448;8.582;2022-08-18T06:09:44;28.75;;;17.85;;
2868;SDS011;1442;47.448;8.582;2022-08-18T06:12:17;20.38;;;18.27;;
2868;SDS011;1442;47.448;8.582;2022-08-18T06:14:46;18.90;;;14.85;;
2868;SDS011;1442;47.448;8.582;2022-08-18T06:17:21;15.82;;;13.98;;
2868;SDS011;1442;47.448;8.582;2022-08-18T06:19:51;15.20;;;13.60;;
2868;SDS011;1442;47.448;8.582;2022-08-18T06:22:24;17.40;;;13.70;;
2868;SDS011;1442;47.448;8.582;2022-08-18T06:27:22;13.93;;;12.40;;
2868;SDS011;1442;47.448;8.582;2022-08-18T06:47:04;16.60;;;14.90;;
2868;SDS011;1442;47.448;8.582;2022-08-18T06:49:37;17.02;;;15.15;;
2868;SDS011;1442;47.448;8.582;2022-08-18T06:52:18;17.27;;;14.40;;
2868;SDS011;1442;47.448;8.582;2022-08-18T06:54:45;16.08;;;13.45;;
2868;SDS011;1442;47.448;8.582;2022-08-18T06:57:21;16.20;;;13.52;;
2868;SDS011;1442;47.448;8.582;2022-08-18T06:59:53;15.82;;;14.27;;
2868;SDS011;1442;47.448;8.582;2022-08-18T07:02:22;14.63;;;13.03;;
2868;SDS011;1442;47.448;8.582;2022-08-18T07:04:58;14.15;;;12.25;;
2868;SDS011;1442;47.448;8.582;2022-08-18T07:07:31;14.63;;;12.23;;
2868;SDS011;1442;47.448;8.582;2022-08-18T07:10:00;12.80;;;11.25;;
2868;SDS011;1442;47.448;8.582;2022-08-18T07:12:28;11.50;;;9.97;;
2868;SDS011;1442;47.448;8.582;2022-08-18T07:14:56;9.43;;;8.48;;
2868;SDS011;1442;47.448;8.582;2022-08-18T07:17:26;9.50;;;8.60;;
2868;SDS011;1442;47.448;8.582;2022-08-18T07:19:54;9.70;;;8.30;;
2868;SDS011;1442;47.448;8.582;2022-08-18T07:22:22;9.20;;;7.50;;
2868;SDS011;1442;47.448;8.582;2022-08-18T07:24:49;8.48;;;7.53;;
2868;SDS011;1442;47.448;8.582;2022-08-18T07:27:19;8.25;;;7.45;;
2868;SDS011;1442;47.448;8.582;2022-08-18T07:29:59;6.60;;;6.00;;
2868;SDS011;1442;47.448;8.582;2022-08-18T07:32:31;7.45;;;6.75;;
2868;SDS011;1442;47.448;8.582;2022-08-18T07:34:59;8.73;;;7.82;;
2868;SDS011;1442;47.448;8.582;2022-08-18T07:37:28;9.40;;;7.90;;
2868;SDS011;1442;47.448;8.582;2022-08-18T07:39:58;12.38;;;8.30;;
2868;SDS011;1442;47.448;8.582;2022-08-18T07:42:29;8.80;;;7.90;;
2868;SDS011;1442;47.448;8.582;2022-08-18T07:44:59;8.15;;;7.35;;
2868;SDS011;1442;47.448;8.582;2022-08-18T07:47:30;7.97;;;7.15;;
2868;SDS011;1442;47.448;8.582;2022-08-18T07:50:00;9.50;;;7.82;;
2868;SDS011;1442;47.448;8.582;2022-08-18T07:52:28;7.75;;;7.00;;
2868;SDS011;1442;47.448;8.582;2022-08-18T07:54:58;7.68;;;6.03;;
2868;SDS011;1442;47.448;8.582;2022-08-18T07:57:31;7.70;;;5.70;;
2868;SDS011;1442;47.448;8.582;2022-08-18T08:00:04;6.35;;;5.75;;
2868;SDS011;1442;47.448;8.582;2022-08-18T08:02:37;7.18;;;6.15;;
2868;SDS011;1442;47.448;8.582;2022-08-18T08:07:35;9.32;;;7.00;;
2868;SDS011;1442;47.448;8.582;2022-08-18T08:10:11;6.78;;;6.13;;
2868;SDS011;1442;47.448;8.582;2022-08-18T08:12:44;10.40;;;6.28;;
2868;SDS011;1442;47.448;8.582;2022-08-18T08:15:15;9.48;;;6.50;;
2868;SDS011;1442;47.448;8.582;2022-08-18T08:17:45;9.40;;;7.20;;
2868;SDS011;1442;47.448;8.582;2022-08-18T08:20:17;10.48;;;8.43;;
2868;SDS011;1442;47.448;8.582;2022-08-18T08:22:51;8.45;;;5.68;;
2868;SDS011;1442;47.448;8.582;2022-08-18T08:25:21;12.77;;;7.13;;
2868;SDS011;1442;47.448;8.582;2022-08-18T08:27:54;7.90;;;6.60;;
2868;SDS011;1442;47.448;8.582;2022-08-18T08:30:25;7.55;;;6.82;;
2868;SDS011;1442;47.448;8.582;2022-08-18T08:32:59;8.80;;;7.38;;
2868;SDS011;1442;47.448;8.582;2022-08-18T08:35:33;12.70;;;8.43;;
2868;SDS011;1442;47.448;8.582;2022-08-18T08:38:02;8.48;;;6.38;;
2868;SDS011;1442;47.448;8.582;2022-08-18T08:40:35;8.18;;;7.38;;
2868;SDS011;1442;47.448;8.582;2022-08-18T08:43:07;8.75;;;6.85;;
2868;SDS011;1442;47.448;8.582;2022-08-18T08:45:36;8.55;;;7.22;;
2868;SDS011;1442;47.448;8.582;2022-08-18T08:48:08;8.85;;;6.90;;
2868;SDS011;1442;47.448;8.582;2022-08-18T08:50:40;7.78;;;6.90;;
2868;SDS011;1442;47.448;8.582;2022-08-18T08:53:11;10.48;;;5.78;;
2868;SDS011;1442;47.448;8.582;2022-08-18T08:55:42;9.57;;;6.13;;
2868;SDS011;1442;47.448;8.582;2022-08-18T08:58:17;10.35;;;6.95;;
2868;SDS011;1442;47.448;8.582;2022-08-18T09:00:45;8.43;;;6.88;;
2868;SDS011;1442;47.448;8.582;2022-08-18T09:03:27;10.27;;;7.72;;
2868;SDS011;1442;47.448;8.582;2022-08-18T09:06:00;9.68;;;7.35;;
2868;SDS011;1442;47.448;8.582;2022-08-18T09:08:39;13.35;;;7.90;;
2868;SDS011;1442;47.448;8.582;2022-08-18T09:11:14;8.65;;;7.38;;
2868;SDS011;1442;47.448;8.582;2022-08-18T09:13:52;10.45;;;7.28;;
2868;SDS011;1442;47.448;8.582;2022-08-18T09:16:26;9.02;;;7.35;;
2868;SDS011;1442;47.448;8.582;2022-08-18T09:19:05;9.65;;;7.75;;
2868;SDS011;1442;47.448;8.582;2022-08-18T09:21:38;13.45;;;8.38;;
2868;SDS011;1442;47.448;8.582;2022-08-18T09:24:08;7.95;;;7.03;;
2868;SDS011;1442;47.448;8.582;2022-08-18T09:26:41;7.88;;;7.00;;
2868;SDS011;1442;47.448;8.582;2022-08-18T09:29:13;9.93;;;6.95;;
2868;SDS011;1442;47.448;8.582;2022-08-18T09:31:41;11.50;;;8.10;;
2868;SDS011;1442;47.448;8.582;2022-08-18T09:34:16;14.75;;;7.72;;
2868;SDS011;1442;47.448;8.582;2022-08-18T09:36:52;9.00;;;7.40;;
2868;SDS011;1442;47.448;8.582;2022-08-18T09:39:25;13.38;;;9.65;;
2868;SDS011;1442;47.448;8.582;2022-08-18T09:42:12;11.48;;;7.80;;
2868;SDS011;1442;47.448;8.582;2022-08-18T09:44:58;9.18;;;6.65;;
2868;SDS011;1442;47.448;8.582;2022-08-18T09:52:58;9.25;;;7.05;;
2868;SDS011;1442;47.448;8.582;2022-08-18T09:55:54;10.50;;;7.85;;
2868;SDS011;1442;47.448;8.582;2022-08-18T10:04:20;9.98;;;9.00;;
2868;SDS011;1442;47.448;8.582;2022-08-18T10:06:51;15.30;;;9.77;;
2868;SDS011;1442;47.448;8.582;2022-08-18T10:09:26;9.75;;;8.40;;
2868;SDS011;1442;47.448;8.582;2022-08-18T10:12:02;8.43;;;6.40;;
2868;SDS011;1442;47.448;8.582;2022-08-18T10:14:40;8.48;;;6.25;;
2868;SDS011;1442;47.448;8.582;2022-08-18T10:17:14;9.93;;;8.07;;
2868;SDS011;1442;47.448;8.582;2022-08-18T10:19:48;9.05;;;7.15;;
2868;SDS011;1442;47.448;8.582;2022-08-18T10:22:32;10.48;;;7.85;;
2868;SDS011;1442;47.448;8.582;2022-08-18T10:25:01;12.13;;;8.52;;
2868;SDS011;1442;47.448;8.582;2022-08-18T10:27:45;9.63;;;8.40;;
2868;SDS011;1442;47.448;8.582;2022-08-18T10:32:54;9.95;;;7.35;;
2868;SDS011;1442;47.448;8.582;2022-08-18T10:38:05;8.50;;;6.97;;
2868;SDS011;1442;47.448;8.582;2022-08-18T10:40:37;7.80;;;6.30;;
2868;SDS011;1442;47.448;8.582;2022-08-18T10:43:07;7.88;;;6.65;;
2868;SDS011;1442;47.448;8.582;2022-08-18T10:45:35;8.27;;;7.35;;
2868;SDS011;1442;47.448;8.582;2022-08-18T10:48:04;10.55;;;7.07;;
2868;SDS011;1442;47.448;8.582;2022-08-18T10:50:35;9.43;;;7.68;;
2868;SDS011;1442;47.448;8.582;2022-08-18T10:53:06;9.10;;;7.20;;
2868;SDS011;1442;47.448;8.582;2022-08-18T10:55:41;9.15;;;6.55;;
2868;SDS011;1442;47.448;8.582;2022-08-18T11:00:57;7.70;;;6.50;;
2868;SDS011;1442;47.448;8.582;2022-08-18T11:03:29;7.60;;;6.45;;
2868;SDS011;1442;47.448;8.582;2022-08-18T11:06:02;7.00;;;5.63;;
2868;SDS011;1442;47.448;8.582;2022-08-18T11:08:30;7.05;;;6.35;;
2868;SDS011;1442;47.448;8.582;2022-08-18T11:11:05;6.45;;;5.80;;
2868;SDS011;1442;47.448;8.582;2022-08-18T11:13:35;7.55;;;6.68;;
2868;SDS011;1442;47.448;8.582;2022-08-18T11:16:08;8.45;;;6.55;;
2868;SDS011;1442;47.448;8.582;2022-08-18T11:18:39;7.90;;;6.20;;
2868;SDS011;1442;47.448;8.582;2022-08-18T11:21:23;6.47;;;5.72;;
2868;SDS011;1442;47.448;8.582;2022-08-18T11:24:01;10.70;;;5.53;;
2868;SDS011;1442;47.448;8.582;2022-08-18T11:26:30;6.10;;;5.50;;
2868;SDS011;1442;47.448;8.582;2022-08-18T11:28:59;6.38;;;5.57;;
2868;SDS011;1442;47.448;8.582;2022-08-18T11:31:26;6.05;;;5.43;;
2868;SDS011;1442;47.448;8.582;2022-08-18T11:33:53;8.45;;;5.78;;
2868;SDS011;1442;47.448;8.582;2022-08-18T11:36:28;6.82;;;5.88;;
2868;SDS011;1442;47.448;8.582;2022-08-18T11:38:55;7.32;;;5.97;;
2868;SDS011;1442;47.448;8.582;2022-08-18T11:41:24;7.07;;;5.82;;
2868;SDS011;1442;47.448;8.582;2022-08-18T11:43:55;6.88;;;6.18;;
2868;SDS011;1442;47.448;8.582;2022-08-18T11:46:26;7.78;;;5.18;;
2868;SDS011;1442;47.448;8.582;2022-08-18T11:48:54;6.72;;;6.03;;
2868;SDS011;1442;47.448;8.582;2022-08-18T11:51:23;6.55;;;5.85;;
2868;SDS011;1442;47.448;8.582;2022-08-18T11:53:52;8.23;;;6.13;;
2868;SDS011;1442;47.448;8.582;2022-08-18T11:56:22;6.47;;;5.63;;
2868;SDS011;1442;47.448;8.582;2022-08-18T11:58:51;6.63;;;5.63;;
2868;SDS011;1442;47.448;8.582;2022-08-18T12:01:33;11.48;;;5.53;;
2868;SDS011;1442;47.448;8.582;2022-08-18T12:04:07;8.90;;;6.03;;
2868;SDS011;1442;47.448;8.582;2022-08-18T12:06:35;9.35;;;5.63;;
2868;SDS011;1442;47.448;8.582;2022-08-18T12:09:04;6.97;;;5.82;;
2868;SDS011;1442;47.448;8.582;2022-08-18T12:11:32;6.00;;;5.35;;
2868;SDS011;1442;47.448;8.582;2022-08-18T12:14:03;6.65;;;5.43;;
2868;SDS011;1442;47.448;8.582;2022-08-18T12:16:34;6.82;;;6.13;;
2868;SDS011;1442;47.448;8.582;2022-08-18T12:19:02;8.57;;;5.78;;
2868;SDS011;1442;47.448;8.582;2022-08-18T12:21:30;7.03;;;6.32;;
2868;SDS011;1442;47.448;8.582;2022-08-18T12:23:57;7.07;;;5.60;;
2868;SDS011;1442;47.448;8.582;2022-08-18T12:26:24;6.93;;;6.20;;
2868;SDS011;1442;47.448;8.582;2022-08-18T12:28:52;6.78;;;5.85;;
2868;SDS011;1442;47.448;8.582;2022-08-18T12:31:19;6.57;;;5.85;;
2868;SDS011;1442;47.448;8.582;2022-08-18T12:33:47;10.00;;;6.03;;
2868;SDS011;1442;47.448;8.582;2022-08-18T12:36:14;11.60;;;5.97;;
2868;SDS011;1442;47.448;8.582;2022-08-18T12:38:42;7.18;;;5.60;;
2868;SDS011;1442;47.448;8.582;2022-08-18T12:41:10;6.45;;;5.82;;
2868;SDS011;1442;47.448;8.582;2022-08-18T12:43:39;7.88;;;5.65;;
2868;SDS011;1442;47.448;8.582;2022-08-18T12:46:07;7.78;;;6.20;;
2868;SDS011;1442;47.448;8.582;2022-08-18T12:48:34;6.90;;;5.47;;
2868;SDS011;1442;47.448;8.582;2022-08-18T12:51:03;6.47;;;5.78;;
2868;SDS011;1442;47.448;8.582;2022-08-18T12:53:30;6.70;;;5.57;;
2868;SDS011;1442;47.448;8.582;2022-08-18T12:55:57;7.88;;;5.35;;
2868;SDS011;1442;47.448;8.582;2022-08-18T12:58:25;9.43;;;5.85;;
2868;SDS011;1442;47.448;8.582;2022-08-18T13:00:52;7.55;;;5.70;;
2868;SDS011;1442;47.448;8.582;2022-08-18T13:03:20;6.82;;;5.50;;
2868;SDS011;1442;47.448;8.582;2022-08-18T13:05:47;7.20;;;5.20;;
2868;SDS011;1442;47.448;8.582;2022-08-18T13:08:17;7.97;;;5.35;;
2868;SDS011;1442;47.448;8.582;2022-08-18T13:10:44;7.07;;;4.88;;
2868;SDS011;1442;47.448;8.582;2022-08-18T13:13:11;10.18;;;5.20;;
2868;SDS011;1442;47.448;8.582;2022-08-18T13:15:39;6.25;;;5.35;;
2868;SDS011;1442;47.448;8.582;2022-08-18T13:18:06;11.00;;;5.00;;
2868;SDS011;1442;47.448;8.582;2022-08-18T13:20:33;8.10;;;5.68;;
2868;SDS011;1442;47.448;8.582;2022-08-18T13:23:00;5.85;;;5.07;;
2868;SDS011;1442;47.448;8.582;2022-08-18T13:25:28;8.27;;;5.53;;
2868;SDS011;1442;47.448;8.582;2022-08-18T13:27:55;5.97;;;4.93;;
2868;SDS011;1442;47.448;8.582;2022-08-18T13:30:23;6.70;;;5.07;;
2868;SDS011;1442;47.448;8.582;2022-08-18T13:32:50;7.25;;;4.88;;
2868;SDS011;1442;47.448;8.582;2022-08-18T13:35:17;7.28;;;5.20;;
2868;SDS011;1442;47.448;8.582;2022-08-18T13:37:44;6.22;;;4.78;;
2868;SDS011;1442;47.448;8.582;2022-08-18T13:40:11;10.30;;;5.32;;
2868;SDS011;1442;47.448;8.582;2022-08-18T13:42:44;6.80;;;5.18;;
2868;SDS011;1442;47.448;8.582;2022-08-18T13:45:13;10.02;;;5.20;;
2868;SDS011;1442;47.448;8.582;2022-08-18T13:47:40;10.10;;;5.60;;
2868;SDS011;1442;47.448;8.582;2022-08-18T13:50:09;5.63;;;4.95;;
2868;SDS011;1442;47.448;8.582;2022-08-18T13:52:36;11.55;;;5.38;;
2868;SDS011;1442;47.448;8.582;2022-08-18T13:55:04;6.20;;;5.35;;
2868;SDS011;1442;47.448;8.582;2022-08-18T13:57:33;7.28;;;4.97;;
2868;SDS011;1442;47.448;8.582;2022-08-18T14:00:02;5.68;;;4.78;;
2868;SDS011;1442;47.448;8.582;2022-08-18T14:02:29;6.00;;;5.20;;
2868;SDS011;1442;47.448;8.582;2022-08-18T14:04:56;5.38;;;4.85;;
2868;SDS011;1442;47.448;8.582;2022-08-18T14:07:24;5.78;;;4.32;;
2868;SDS011;1442;47.448;8.582;2022-08-18T14:09:51;5.75;;;4.25;;
2868;SDS011;1442;47.448;8.582;2022-08-18T14:12:19;6.63;;;5.22;;
2868;SDS011;1442;47.448;8.582;2022-08-18T14:14:46;8.38;;;5.32;;
2868;SDS011;1442;47.448;8.582;2022-08-18T14:17:15;8.38;;;5.70;;
2868;SDS011;1442;47.448;8.582;2022-08-18T14:19:42;9.15;;;5.88;;
2868;SDS011;1442;47.448;8.582;2022-08-18T14:22:32;7.18;;;5.30;;
2868;SDS011;1442;47.448;8.582;2022-08-18T14:25:17;8.00;;;5.97;;
2868;SDS011;1442;47.448;8.582;2022-08-18T14:28:07;8.32;;;5.75;;
2868;SDS011;1442;47.448;8.582;2022-08-18T14:30:34;5.70;;;5.05;;
2868;SDS011;1442;47.448;8.582;2022-08-18T14:33:05;8.38;;;5.93;;
2868;SDS011;1442;47.448;8.582;2022-08-18T14:35:33;8.00;;;5.80;;
2868;SDS011;1442;47.448;8.582;2022-08-18T14:38:01;6.55;;;5.90;;
2868;SDS011;1442;47.448;8.582;2022-08-18T14:40:32;7.00;;;5.75;;
2868;SDS011;1442;47.448;8.582;2022-08-18T14:42:59;7.38;;;5.40;;
2868;SDS011;1442;47.448;8.582;2022-08-18T14:45:27;7.10;;;6.00;;
2868;SDS011;1442;47.448;8.582;2022-08-18T14:47:54;8.32;;;6.45;;
2868;SDS011;1442;47.448;8.582;2022-08-18T14:50:22;7.47;;;6.13;;
2868;SDS011;1442;47.448;8.582;2022-08-18T14:52:50;8.00;;;6.45;;
2868;SDS011;1442;47.448;8.582;2022-08-18T14:55:17;8.63;;;5.97;;
2868;SDS011;1442;47.448;8.582;2022-08-18T14:57:44;8.15;;;5.50;;
2868;SDS011;1442;47.448;8.582;2022-08-18T15:00:13;9.15;;;6.10;;
2868;SDS011;1442;47.448;8.582;2022-08-18T15:02:40;10.65;;;6.45;;
2868;SDS011;1442;47.448;8.582;2022-08-18T15:05:08;7.80;;;6.30;;
2868;SDS011;1442;47.448;8.582;2022-08-18T15:07:37;8.80;;;6.18;;
2868;SDS011;1442;47.448;8.582;2022-08-18T15:10:05;9.68;;;6.40;;
2868;SDS011;1442;47.448;8.582;2022-08-18T15:12:32;13.73;;;7.40;;
2868;SDS011;1442;47.448;8.582;2022-08-18T15:15:00;10.02;;;6.75;;
2868;SDS011;1442;47.448;8.582;2022-08-18T15:17:28;6.90;;;6.00;;
2868;SDS011;1442;47.448;8.582;2022-08-18T15:19:55;10.98;;;7.82;;
2868;SDS011;1442;47.448;8.582;2022-08-18T15:22:22;9.43;;;6.95;;
2868;SDS011;1442;47.448;8.582;2022-08-18T15:25:09;8.27;;;7.38;;
2868;SDS011;1442;47.448;8.582;2022-08-18T15:27:54;9.48;;;8.48;;
2868;SDS011;1442;47.448;8.582;2022-08-18T15:30:21;13.23;;;9.65;;
2868;SDS011;1442;47.448;8.582;2022-08-18T15:32:48;10.95;;;8.55;;
2868;SDS011;1442;47.448;8.582;2022-08-18T15:35:16;13.50;;;9.45;;
2868;SDS011;1442;47.448;8.582;2022-08-18T15:37:44;12.77;;;9.43;;
2868;SDS011;1442;47.448;8.582;2022-08-18T15:40:14;11.43;;;9.43;;
2868;SDS011;1442;47.448;8.582;2022-08-18T15:42:42;14.90;;;10.15;;
2868;SDS011;1442;47.448;8.582;2022-08-18T15:45:11;16.23;;;11.73;;
2868;SDS011;1442;47.448;8.582;2022-08-18T15:47:39;13.52;;;11.93;;
2868;SDS011;1442;47.448;8.582;2022-08-18T15:50:07;12.38;;;10.77;;
2868;SDS011;1442;47.448;8.582;2022-08-18T15:52:34;17.60;;;11.73;;
2868;SDS011;1442;47.448;8.582;2022-08-18T15:55:01;16.92;;;10.98;;
2868;SDS011;1442;47.448;8.582;2022-08-18T15:57:30;15.32;;;10.43;;
2868;SDS011;1442;47.448;8.582;2022-08-18T15:59:59;14.52;;;11.05;;
2868;SDS011;1442;47.448;8.582;2022-08-18T16:02:27;14.00;;;10.73;;
2868;SDS011;1442;47.448;8.582;2022-08-18T16:04:54;16.98;;;10.95;;
2868;SDS011;1442;47.448;8.582;2022-08-18T16:07:21;13.07;;;10.40;;
2868;SDS011;1442;47.448;8.582;2022-08-18T16:09:48;12.50;;;10.27;;